createdAt,value
2023-07-04T00:01:58.374Z,91859.69
2023-07-04T00:04:25.065Z,91847.19
2023-07-04T00:06:52.285Z,91851.31
2023-07-04T00:09:19.237Z,91851.31
2023-07-04T00:11:45.817Z,91841.75
2023-07-04T00:14:12.723Z,91843.19
2023-07-04T00:16:39.395Z,91840.41
2023-07-04T00:19:07.717Z,91854.22
2023-07-04T00:21:34.716Z,91862.47
2023-07-04T00:24:01.621Z,91865.16
2023-07-04T00:26:29.212Z,91865.03
2023-07-04T00:28:55.924Z,91872.19
2023-07-04T00:31:24.932Z,91874.84
2023-07-04T00:33:52.929Z,91874.84
2023-07-04T00:36:20.816Z,91888.22
2023-07-04T00:38:50.550Z,91884.59
2023-07-04T00:41:22.864Z,91890.16
2023-07-04T00:44:08.822Z,91901.31
2023-07-04T00:46:46.380Z,91902.03
2023-07-04T00:49:27.650Z,91902.53
2023-07-04T00:51:59.953Z,91903.88
2023-07-04T00:54:30.887Z,91907.13
2023-07-04T00:57:05.969Z,91910.53
2023-07-04T00:59:35.606Z,91909.06
2023-07-04T01:02:02.323Z,91921.81
2023-07-04T01:04:33.392Z,91926.53
2023-07-04T01:07:17.789Z,91928.47
2023-07-04T01:09:51.736Z,91931.25
2023-07-04T01:12:19.576Z,91927.03
2023-07-04T01:14:48.980Z,91928.94
2023-07-04T01:17:15.728Z,91920.47
2023-07-04T01:19:43.086Z,91920.94
2023-07-04T01:22:21.961Z,91925.31
2023-07-04T01:25:07.957Z,91924.44
2023-07-04T01:27:36.922Z,91932.13
2023-07-04T01:32:36.773Z,91945.94
2023-07-04T01:35:05.900Z,91947.25
2023-07-04T01:37:32.579Z,91943.00
2023-07-04T01:40:01.232Z,91938.88
2023-07-04T01:42:37.844Z,91930.50
2023-07-04T01:45:07.141Z,91923.31
2023-07-04T01:47:36.029Z,91917.75
2023-07-04T01:50:03.987Z,91924.78
2023-07-04T01:52:31.324Z,91924.78
2023-07-04T01:54:59.001Z,91916.16
2023-07-04T01:57:26.392Z,91916.03
2023-07-04T01:59:53.308Z,91912.63
2023-07-04T02:02:20.103Z,91908.50
2023-07-04T02:04:47.903Z,91901.47
2023-07-04T02:07:14.644Z,91904.75
2023-07-04T02:09:41.294Z,91907.53
2023-07-04T02:12:08.228Z,91904.63
2023-07-04T02:14:34.869Z,91897.59
2023-07-04T02:17:01.582Z,91885.22
2023-07-04T02:19:28.358Z,91879.63
2023-07-04T02:21:54.992Z,91878.91
2023-07-04T02:24:21.764Z,91875.00
2023-07-04T02:26:48.351Z,91872.09
2023-07-04T02:29:14.946Z,91864.59
2023-07-04T02:31:41.530Z,91864.59
2023-07-04T02:34:08.487Z,91868.09
2023-07-04T02:36:35.238Z,91875.28
2023-07-04T02:39:02.033Z,91877.19
2023-07-04T02:41:30.841Z,91879.25
2023-07-04T02:43:58.424Z,91870.66
2023-07-04T02:46:25.192Z,91877.69
2023-07-04T02:48:51.968Z,91881.06
2023-07-04T02:51:18.658Z,91893.06
2023-07-04T02:53:45.409Z,91891.63
2023-07-04T02:56:12.770Z,91900.25
2023-07-04T02:58:39.316Z,91903.66
2023-07-04T03:01:06.388Z,91897.34
2023-07-04T03:03:33.297Z,91900.25
2023-07-04T03:06:02.010Z,91893.31
2023-07-04T03:08:28.732Z,91901.56
2023-07-04T03:10:55.618Z,91904.97
2023-07-04T03:13:22.553Z,91908.50
2023-07-04T03:15:49.263Z,91898.78
2023-07-04T03:18:16.087Z,91900.38
2023-07-04T03:20:42.823Z,91904.63
2023-07-04T03:23:09.635Z,91900.97
2023-07-04T03:25:36.633Z,91897.34
2023-07-04T03:28:03.367Z,91901.44
2023-07-04T03:30:30.023Z,91894.41
2023-07-04T03:32:56.819Z,91900.00
2023-07-04T03:35:23.548Z,91904.13
2023-07-04T03:37:50.146Z,91909.94
2023-07-04T03:40:16.758Z,91907.03
2023-07-04T03:42:43.576Z,91906.03
2023-07-04T03:45:10.975Z,91913.53
2023-07-04T03:47:37.539Z,91911.75
2023-07-04T03:50:05.113Z,91910.88
2023-07-04T03:52:31.869Z,91916.19
2023-07-04T03:54:58.531Z,91914.75
2023-07-04T03:57:25.197Z,91916.19
2023-07-04T03:59:51.721Z,91908.44
2023-07-04T04:02:18.295Z,91913.53
2023-07-04T04:04:45.153Z,91915.03
2023-07-04T04:07:12.217Z,91912.09
2023-07-04T04:09:39.690Z,91921.31
2023-07-04T04:12:08.617Z,91920.47
2023-07-04T04:14:36.622Z,91927.34
2023-07-04T04:17:04.452Z,91924.47
2023-07-04T04:19:31.198Z,91931.22
2023-07-04T04:21:57.982Z,91925.66
2023-07-04T04:24:25.116Z,91929.16
2023-07-04T04:26:51.704Z,91936.81
2023-07-04T04:29:19.238Z,91924.34
2023-07-04T04:31:47.130Z,91929.91
2023-07-04T04:34:14.867Z,91931.22
2023-07-04T04:36:41.458Z,91938.16
2023-07-04T04:39:08.242Z,91935.97
2023-07-04T04:41:35.124Z,91943.59
2023-07-04T04:44:04.033Z,91942.84
2023-07-04T04:46:30.795Z,91952.09
2023-07-04T04:48:59.711Z,91946.50
2023-07-04T04:51:26.429Z,91943.84
2023-07-04T04:53:53.420Z,91939.72
2023-07-04T04:56:20.203Z,91942.66
2023-07-04T04:58:46.981Z,91950.88
2023-07-04T05:01:24.287Z,91950.13
2023-07-04T05:03:56.320Z,91948.69
2023-07-04T05:06:25.738Z,91956.47
2023-07-04T05:08:52.889Z,91950.88
2023-07-04T05:11:20.580Z,91950.75
2023-07-04T05:13:47.862Z,91946.78
2023-07-04T05:16:17.735Z,91948.22
2023-07-04T05:18:45.153Z,91962.31
2023-07-04T05:21:19.411Z,91960.97
2023-07-04T05:23:47.883Z,91962.31
2023-07-04T05:26:23.225Z,91957.94
2023-07-04T05:28:52.611Z,91967.75
2023-07-04T05:31:22.546Z,91959.38
2023-07-04T05:33:49.793Z,91957.19
2023-07-04T05:36:17.744Z,91960.13
2023-07-04T05:38:45.164Z,91957.31
2023-07-04T05:41:13.237Z,91954.66
2023-07-04T05:43:40.681Z,91948.97
2023-07-04T05:46:07.790Z,91955.38
2023-07-04T05:48:35.783Z,91948.50
2023-07-04T05:51:08.773Z,91949.59
2023-07-04T05:53:37.465Z,91934.91
2023-07-04T05:56:14.007Z,91939.31
2023-07-04T05:58:46.388Z,91941.28
2023-07-04T06:01:20.048Z,91934.47
2023-07-04T06:03:46.715Z,91937.44
2023-07-04T06:06:22.598Z,91937.78
2023-07-04T06:08:50.550Z,91928.09
2023-07-04T06:11:18.212Z,91927.28
2023-07-04T06:13:45.191Z,91914.91
2023-07-04T06:16:12.496Z,91923.41
2023-07-04T06:18:40.311Z,91910.06
2023-07-04T06:21:10.567Z,91914.19
2023-07-04T06:23:37.824Z,91911.53
2023-07-04T06:26:06.400Z,91912.50
2023-07-04T06:28:34.386Z,91914.69
2023-07-04T06:31:04.944Z,91917.09
2023-07-04T06:33:32.342Z,91909.59
2023-07-04T06:35:59.514Z,91907.53
2023-07-04T06:38:26.379Z,91898.69
2023-07-04T06:41:01.078Z,91904.34
2023-07-04T06:43:29.841Z,91896.84
2023-07-04T06:45:57.047Z,91902.56
2023-07-04T06:48:24.705Z,91910.31
2023-07-04T06:51:06.023Z,91905.34
2023-07-04T06:53:34.538Z,91906.19
2023-07-04T06:56:08.757Z,91896.47
2023-07-04T06:58:38.332Z,91902.69
2023-07-04T07:01:05.543Z,91900.13
2023-07-04T07:03:32.711Z,91894.56
2023-07-04T07:06:03.728Z,91897.44
2023-07-04T07:08:30.420Z,91896.00
2023-07-04T07:10:59.761Z,91898.19
2023-07-04T07:13:27.251Z,91891.38
2023-07-04T07:16:08.692Z,91892.84
2023-07-04T07:18:36.384Z,91892.84
2023-07-04T07:21:04.630Z,91884.59
2023-07-04T07:23:34.517Z,91894.53
2023-07-04T07:26:03.287Z,91873.63
2023-07-04T07:28:35.860Z,91879.94
2023-07-04T07:31:07.717Z,91879.94
2023-07-04T07:33:36.426Z,91883.63
2023-07-04T07:36:16.879Z,91870.97
2023-07-04T07:38:44.155Z,91879.50
2023-07-04T07:41:11.049Z,91870.50
2023-07-04T07:43:39.795Z,91865.66
2023-07-04T07:46:13.909Z,91862.97
2023-07-04T07:48:41.134Z,91863.09
2023-07-04T07:51:09.394Z,91858.25
2023-07-04T07:53:38.177Z,91851.78
2023-07-04T07:56:06.556Z,91850.56
2023-07-04T07:58:34.169Z,91854.72
2023-07-04T08:01:01.397Z,91846.34
2023-07-04T08:03:28.626Z,91843.78
2023-07-04T08:05:55.244Z,91845.22
2023-07-04T08:08:21.802Z,91842.56
2023-07-04T08:10:48.524Z,91831.38
2023-07-04T08:13:15.393Z,91838.41
2023-07-04T08:15:42.057Z,91831.38
2023-07-04T08:18:11.261Z,91826.53
2023-07-04T08:20:38.501Z,91819.56
2023-07-04T08:23:05.527Z,91824.56
2023-07-04T08:25:32.279Z,91814.84
2023-07-04T08:28:01.281Z,91816.28
2023-07-04T08:30:27.925Z,91805.09
2023-07-04T08:32:54.743Z,91804.38
2023-07-04T08:35:21.796Z,91800.97
2023-07-04T08:37:48.523Z,91802.31
2023-07-04T08:40:17.745Z,91801.09
2023-07-04T08:42:45.152Z,91795.38
2023-07-04T08:45:18.123Z,91789.78
2023-07-04T08:47:44.936Z,91788.47
2023-07-04T08:50:32.898Z,91784.19
2023-07-04T08:53:23.805Z,91781.53
2023-07-04T08:56:12.463Z,91786.53
2023-07-04T08:58:53.787Z,91775.94
2023-07-04T09:01:38.742Z,91773.25
2023-07-04T09:04:22.686Z,91774.59
2023-07-04T09:07:05.212Z,91773.25
2023-07-04T09:09:50.185Z,91763.56
2023-07-04T09:12:17.270Z,91769.13
2023-07-04T09:14:57.342Z,91762.81
2023-07-04T09:18:22.264Z,91759.41
2023-07-04T09:21:00.942Z,91764.38
2023-07-04T09:23:27.681Z,91756.59
2023-07-04T09:25:57.456Z,91754.53
2023-07-04T09:28:24.999Z,91749.69
2023-07-04T09:30:59.655Z,91749.06
2023-07-04T09:33:29.322Z,91739.97
2023-07-04T09:35:58.113Z,91747.00
2023-07-04T09:38:25.173Z,91735.09
2023-07-04T09:40:55.952Z,91742.00
2023-07-04T09:43:31.423Z,91745.53
2023-07-04T09:46:30.745Z,91734.38
2023-07-04T09:49:24.931Z,91732.94
2023-07-04T09:52:00.510Z,91745.53
2023-07-04T09:54:27.998Z,91741.41
2023-07-04T09:56:55.345Z,91728.78
2023-07-04T09:59:28.064Z,91732.94
2023-07-04T10:01:59.954Z,91732.94
2023-07-04T10:04:37.364Z,91728.78
2023-07-04T10:07:12.159Z,91720.28
2023-07-04T10:10:05.445Z,91723.69
2023-07-04T10:12:40.902Z,91725.88
2023-07-04T10:15:08.296Z,91720.28
2023-07-04T10:17:40.623Z,91720.28
2023-07-04T10:20:14.280Z,91716.16
2023-07-04T10:22:49.303Z,91716.75
2023-07-04T10:25:19.056Z,91711.78
2023-07-04T10:27:50.333Z,91718.94
2023-07-04T10:30:22.606Z,91698.53
2023-07-04T10:32:55.011Z,91713.25
2023-07-04T10:35:26.283Z,91698.53
2023-07-04T10:38:02.821Z,91702.69
2023-07-04T10:40:30.116Z,91685.06
2023-07-04T10:43:06.875Z,91699.16
2023-07-04T10:45:34.178Z,91693.56
2023-07-04T10:48:10.861Z,91692.09
2023-07-04T10:50:49.987Z,91687.75
2023-07-04T10:53:18.892Z,91693.34
2023-07-04T10:56:14.663Z,91675.13
2023-07-04T10:58:45.999Z,91674.50
2023-07-04T11:01:38.953Z,91671.59
2023-07-04T11:04:21.378Z,91670.97
2023-07-04T11:07:01.493Z,91669.53
2023-07-04T11:09:34.932Z,91675.13
2023-07-04T11:12:06.475Z,91675.13
2023-07-04T11:14:37.429Z,91672.44
2023-07-04T11:17:08.483Z,91663.97
2023-07-04T11:19:35.348Z,91662.50
2023-07-04T11:22:02.434Z,91669.53
2023-07-04T11:24:38.885Z,91668.06
2023-07-04T11:27:15.992Z,91662.50
2023-07-04T11:29:55.273Z,91658.38
2023-07-04T11:32:28.721Z,91662.59
2023-07-04T11:35:01.284Z,91655.66
2023-07-04T11:37:33.702Z,91656.41
2023-07-04T11:40:11.280Z,91658.44
2023-07-04T11:42:48.592Z,91657.13
2023-07-04T11:45:18.352Z,91659.91
2023-07-04T11:48:04.083Z,91655.66
2023-07-04T11:50:46.305Z,91652.97
2023-07-04T11:53:17.060Z,91652.97
2023-07-04T11:55:44.709Z,91651.53
2023-07-04T11:58:11.271Z,91661.38
2023-07-04T12:00:40.449Z,91658.56
2023-07-04T12:03:19.732Z,91660.03
2023-07-04T12:05:49.776Z,91656.63
2023-07-04T12:08:35.617Z,91651.78
2023-07-04T12:11:10.261Z,91643.38
2023-07-04T12:13:40.237Z,91640.59
2023-07-04T12:16:07.428Z,91633.53
2023-07-04T12:18:36.047Z,91630.63
2023-07-04T12:21:02.804Z,91627.94
2023-07-04T12:23:30.291Z,91643.28
2023-07-04T12:26:01.235Z,91650.31
2023-07-04T12:28:32.581Z,91656.50
2023-07-04T12:33:45.518Z,91676.56
2023-07-04T12:36:16.633Z,91691.97
2023-07-04T12:38:51.385Z,91681.22
2023-07-04T12:41:22.186Z,91711.34
2023-07-04T12:51:47.169Z,91741.72
2023-07-04T12:54:16.469Z,91755.56
2023-07-04T12:56:46.002Z,91734.22
2023-07-04T12:59:33.758Z,91737.00
2023-07-04T13:02:05.669Z,91730.09
2023-07-04T13:04:34.205Z,91721.59
2023-07-04T13:07:00.880Z,91723.06
2023-07-04T13:09:27.741Z,91735.44
2023-07-04T13:11:54.611Z,91746.47
2023-07-04T13:14:29.064Z,91739.22
2023-07-04T13:17:13.219Z,91731.34
2023-07-04T13:19:44.902Z,91723.56
2023-07-04T13:22:17.180Z,91725.75
2023-07-04T13:24:58.571Z,91728.66
2023-07-04T13:27:30.660Z,91723.06
2023-07-04T13:35:36.856Z,91723.78
2023-07-04T13:40:34.906Z,91739.72
2023-07-04T13:45:41.857Z,91747.13
2023-07-04T13:48:09.011Z,91752.69
2023-07-04T13:50:36.344Z,91765.34
2023-07-04T13:53:14.178Z,91756.84
2023-07-04T13:55:41.403Z,91765.09
2023-07-04T13:58:08.188Z,91773.38
2023-07-04T14:00:40.976Z,91786.59
2023-07-04T14:05:56.713Z,91803.25
2023-07-04T14:08:25.140Z,91822.06
2023-07-04T14:11:01.920Z,91821.44
2023-07-04T14:13:29.139Z,91811.00
2023-07-04T14:21:05.560Z,91777.03
2023-07-04T14:23:32.466Z,91762.22
2023-07-04T14:25:59.128Z,91755.66
2023-07-04T14:28:25.963Z,91751.88
2023-07-04T14:30:55.487Z,91754.94
2023-07-04T14:33:22.827Z,91765.59
2023-07-04T14:35:50.126Z,91756.38
2023-07-04T14:38:17.710Z,91748.09
2023-07-04T14:43:13.968Z,91746.66
2023-07-04T14:45:40.559Z,91748.97
2023-07-04T14:48:07.354Z,91751.25
2023-07-04T14:50:34.472Z,91752.94
2023-07-04T14:53:01.256Z,91745.41
2023-07-04T14:55:27.815Z,91740.03
2023-07-04T14:57:55.333Z,91732.91
2023-07-04T15:00:23.782Z,91733.75
2023-07-04T15:02:50.781Z,91746.88
2023-07-04T15:05:17.624Z,91751.72
2023-07-04T15:07:44.914Z,91754.41
2023-07-04T15:10:11.976Z,91760.72
2023-07-04T15:12:38.806Z,91754.41
2023-07-04T15:15:06.113Z,91757.09
2023-07-04T15:17:32.627Z,91757.09
2023-07-04T15:19:59.348Z,91752.94
2023-07-04T15:22:25.920Z,91755.84
2023-07-04T15:24:52.589Z,91758.78
2023-07-04T15:27:19.162Z,91744.91
2023-07-04T15:29:45.737Z,91746.59
2023-07-04T15:32:12.310Z,91743.97
2023-07-04T15:34:40.671Z,91749.53
2023-07-04T15:37:09.148Z,91757.94
2023-07-04T15:39:36.261Z,91773.06
2023-07-04T15:42:03.150Z,91767.28
2023-07-04T15:44:30.054Z,91764.34
2023-07-04T15:46:57.083Z,91764.13
2023-07-04T15:49:23.710Z,91776.75
2023-07-04T15:51:57.162Z,91776.75
2023-07-04T15:54:24.663Z,91766.78
2023-07-04T15:56:52.112Z,91765.47
2023-07-04T15:59:18.584Z,91763.38
2023-07-04T16:01:46.013Z,91761.19
2023-07-04T16:04:13.277Z,91777.97
2023-07-04T16:06:42.100Z,91775.03
2023-07-04T16:09:09.384Z,91780.63
2023-07-04T16:11:38.268Z,91771.19
2023-07-04T16:14:05.812Z,91775.31
2023-07-04T16:16:33.432Z,91784.28
2023-07-04T16:19:00.208Z,91778.72
2023-07-04T16:21:26.965Z,91792.78
2023-07-04T16:23:53.672Z,91781.88
2023-07-04T16:26:20.235Z,91780.50
2023-07-04T16:28:46.850Z,91800.06
2023-07-04T16:31:13.518Z,91794.47
2023-07-04T16:33:40.689Z,91795.69
2023-07-04T16:36:07.333Z,91797.06
2023-07-04T16:38:34.353Z,91811.00
2023-07-04T16:41:01.349Z,91811.72
2023-07-04T16:43:28.295Z,91813.81
2023-07-04T16:45:58.204Z,91814.41
2023-07-04T16:48:25.364Z,91820.50
2023-07-04T16:50:55.387Z,91815.63
2023-07-04T16:53:22.018Z,91813.69
2023-07-04T16:55:55.384Z,91828.97
2023-07-04T16:58:21.934Z,91819.03
2023-07-04T17:00:48.506Z,91816.09
2023-07-04T17:03:16.172Z,91810.53
2023-07-04T17:05:43.822Z,91817.34
2023-07-04T17:08:10.825Z,91815.16
2023-07-04T17:10:38.191Z,91821.47
2023-07-04T17:13:05.211Z,91823.53
2023-07-04T17:15:31.920Z,91829.72
2023-07-04T17:17:58.643Z,91835.19
2023-07-04T17:20:25.209Z,91842.81
2023-07-04T17:22:51.822Z,91855.91
2023-07-04T17:25:19.125Z,91854.47
2023-07-04T17:27:45.838Z,91858.63
2023-07-04T17:30:12.578Z,91855.91
2023-07-04T17:32:39.200Z,91859.94
2023-07-04T17:35:07.232Z,91868.19
2023-07-04T17:37:34.308Z,91870.97
2023-07-04T17:40:01.123Z,91879.97
2023-07-04T17:42:30.460Z,91894.28
2023-07-04T17:44:58.504Z,91879.72
2023-07-04T17:47:25.269Z,91883.84
2023-07-04T17:49:51.906Z,91879.72
2023-07-04T17:52:18.466Z,91892.59
2023-07-04T17:54:45.253Z,91882.41
2023-07-04T17:57:26.188Z,91886.03
2023-07-04T17:59:54.664Z,91879.00
2023-07-04T18:02:21.976Z,91871.13
2023-07-04T18:04:48.938Z,91865.91
2023-07-04T18:07:16.324Z,91878.50
2023-07-04T18:09:48.503Z,91886.28
2023-07-04T18:12:24.884Z,91891.16
2023-07-04T18:14:53.108Z,91881.16
2023-07-04T18:17:19.861Z,91879.72
2023-07-04T18:19:46.729Z,91882.78
2023-07-04T18:22:13.708Z,91887.00
2023-07-04T18:24:40.670Z,91913.47
2023-07-04T18:27:07.381Z,91909.09
2023-07-04T18:29:34.769Z,91918.69
2023-07-04T18:32:03.692Z,91918.56
2023-07-04T18:34:30.500Z,91912.72
2023-07-04T18:36:57.338Z,91901.44
2023-07-04T18:39:24.100Z,91911.03
2023-07-04T18:41:51.087Z,91902.53
2023-07-04T18:44:17.858Z,91897.53
2023-07-04T18:46:45.604Z,91889.16
2023-07-04T18:49:17.486Z,91898.41
2023-07-04T18:51:44.336Z,91904.00
2023-07-04T18:54:16.285Z,91905.44
2023-07-04T18:56:44.461Z,91918.06
2023-07-04T18:59:12.531Z,91919.25
2023-07-04T19:01:39.707Z,91928.97
2023-07-04T19:04:06.613Z,91927.41
2023-07-04T19:06:35.604Z,91928.84
2023-07-04T19:09:02.762Z,91930.91
2023-07-04T19:11:30.645Z,91916.13
2023-07-04T19:14:11.292Z,91914.78
2023-07-04T19:16:42.757Z,91924.34
2023-07-04T19:19:11.181Z,91932.72
2023-07-04T19:21:39.313Z,91931.25
2023-07-04T19:24:06.668Z,91931.38
2023-07-04T19:26:36.127Z,91943.28
2023-07-04T19:29:04.078Z,91939.63
2023-07-04T19:31:30.780Z,91950.78
2023-07-04T19:33:58.646Z,91950.09
2023-07-04T19:36:25.351Z,91961.72
2023-07-04T19:38:51.994Z,91970.22
2023-07-04T19:41:18.543Z,91957.47
2023-07-04T19:43:45.223Z,91954.66
2023-07-04T19:46:11.939Z,91961.59
2023-07-04T19:48:38.808Z,91971.41
2023-07-04T19:51:11.419Z,91987.31
2023-07-04T19:53:40.446Z,92004.75
2023-07-04T19:56:10.478Z,92003.31
2023-07-04T19:58:37.876Z,92010.94
2023-07-04T20:01:09.218Z,92024.28
2023-07-04T20:03:36.902Z,92021.41
2023-07-04T20:06:05.370Z,92027.09
2023-07-04T20:08:32.720Z,92033.28
2023-07-04T20:10:59.488Z,92032.44
2023-07-04T20:13:29.467Z,92031.09
2023-07-04T20:15:58.515Z,92044.44
2023-07-04T20:18:25.671Z,92047.81
2023-07-04T20:20:56.139Z,92052.56
2023-07-04T20:23:23.245Z,92057.53
2023-07-04T20:25:54.809Z,92054.16
2023-07-04T20:28:23.569Z,92039.00
2023-07-04T20:30:56.437Z,92027.69
2023-07-04T20:33:25.413Z,92021.63
2023-07-04T20:35:53.310Z,92031.47
2023-07-04T20:38:20.760Z,92030.13
2023-07-04T20:40:47.786Z,92024.56
2023-07-04T20:43:15.972Z,92022.88
2023-07-04T20:45:43.015Z,92020.69
2023-07-04T20:48:11.265Z,92023.25
2023-07-04T20:50:39.203Z,92022.16
2023-07-04T20:53:06.675Z,92023.34
2023-07-04T20:55:37.973Z,92026.03
2023-07-04T20:58:07.441Z,92039.84
2023-07-04T21:00:35.083Z,92045.16
2023-07-04T21:03:02.007Z,92052.09
2023-07-04T21:05:28.868Z,92051.50
2023-07-04T21:07:56.658Z,92063.38
2023-07-04T21:10:27.703Z,92066.03
2023-07-04T21:12:58.356Z,92063.38
2023-07-04T21:15:27.201Z,92067.50
2023-07-04T21:17:55.386Z,92061.91
2023-07-04T21:20:23.025Z,92048.28
2023-07-04T21:22:50.287Z,92059.72
2023-07-04T21:25:17.566Z,92059.59
2023-07-04T21:27:44.547Z,92064.56
2023-07-04T21:30:11.638Z,92063.25
2023-07-04T21:32:38.557Z,92052.66
2023-07-04T21:35:05.769Z,92051.81
2023-07-04T21:37:32.480Z,92060.19
2023-07-04T21:39:59.060Z,92062.81
2023-07-04T21:42:25.607Z,92054.88
2023-07-04T21:44:55.657Z,92042.25
2023-07-04T21:47:22.414Z,92049.03
2023-07-04T21:49:50.231Z,92053.13
2023-07-04T21:52:17.306Z,92039.19
2023-07-04T21:54:45.505Z,92039.03
2023-07-04T21:57:12.995Z,92033.44
2023-07-04T21:59:39.549Z,92027.75
2023-07-04T22:02:06.699Z,92018.53
2023-07-04T22:04:33.411Z,92019.13
2023-07-04T22:07:00.016Z,92026.03
2023-07-04T22:09:26.939Z,92021.78
2023-07-04T22:11:53.679Z,92027.50
2023-07-04T22:14:35.647Z,92026.16
2023-07-04T22:17:05.649Z,92022.06
2023-07-04T22:19:32.495Z,92035.88
2023-07-04T22:21:59.284Z,92037.91
2023-07-04T22:24:27.660Z,92040.69
2023-07-04T22:26:54.536Z,92038.53
2023-07-04T22:29:21.425Z,92033.53
2023-07-04T22:31:47.950Z,92025.19
2023-07-04T22:34:14.907Z,92018.25
2023-07-04T22:36:41.937Z,92029.16
2023-07-04T22:39:09.656Z,92026.38
2023-07-04T22:41:36.821Z,92022.72
2023-07-04T22:44:03.458Z,92012.91
2023-07-04T22:46:30.684Z,92024.16
2023-07-04T22:48:57.699Z,92014.34
2023-07-04T22:51:24.751Z,92014.34
2023-07-04T22:53:52.396Z,92021.28
2023-07-04T22:56:19.795Z,92024.78
2023-07-04T22:58:47.041Z,92023.59
2023-07-04T23:01:18.239Z,92015.94
2023-07-04T23:03:45.069Z,92017.41
2023-07-04T23:06:12.860Z,92015.47
2023-07-04T23:08:40.446Z,92023.13
2023-07-04T23:11:07.333Z,92028.81
2023-07-04T23:13:34.411Z,92035.59
2023-07-04T23:16:05.293Z,92039.25
2023-07-04T23:18:32.308Z,92038.53
2023-07-04T23:20:59.470Z,92033.69
2023-07-04T23:23:26.649Z,92038.53
2023-07-04T23:25:53.706Z,92044.09
2023-07-04T23:28:20.656Z,92056.72
2023-07-04T23:30:47.352Z,92056.72
2023-07-04T23:33:13.949Z,92064.97
2023-07-04T23:35:40.493Z,92070.41
2023-07-04T23:38:07.040Z,92073.19
2023-07-04T23:40:33.616Z,92071.72
2023-07-04T23:43:00.365Z,92074.38
2023-07-04T23:45:26.912Z,92080.56
2023-07-04T23:47:53.504Z,92085.53
2023-07-04T23:50:20.198Z,92081.91
2023-07-04T23:52:47.027Z,92070.00
2023-07-04T23:55:13.664Z,92078.50
2023-07-04T23:57:40.227Z,92081.16
